Time;durP1;ratioP1;P1;durP2;ratioP2;P2;SDS_P1;SDS_P2;PMS_P1;PMS_P2;Temp;Humidity;BMP_temperature;BMP_pressure;BME280_temperature;BME280_humidity;BME280_pressure;Samples;Min_cycle;Max_cycle;Signal;HPM_P1;HPM_P2
2024/01/03 00:00:44;;;;;;;9.43;5.10;;;;;;;;;;5114012;28;20199;-78
2024/01/03 00:03:12;;;;;;;6.40;4.93;;;;;;;;;;5112940;28;20195;-78
2024/01/03 00:05:42;;;;;;;8.53;5.53;;;;;;;;;;5113184;28;20220;-79
2024/01/03 00:08:15;;;;;;;8.70;6.50;;;;;;;;;;5111296;28;20615;-78
2024/01/03 00:10:47;;;;;;;13.40;8.03;;;;;;;;;;5112155;28;20553;-78
2024/01/03 00:13:59;;;;;;;13.03;8.67;;;;;;;;;;5112147;28;20573;-78
2024/01/03 00:16:26;;;;;;;12.07;8.50;;;;;;;;;;5112154;28;20204;-78
2024/01/03 00:18:54;;;;;;;17.50;9.03;;;;;;;;;;5111865;28;20203;-78
2024/01/03 00:21:25;;;;;;;12.07;7.67;;;;;;;;;;5112752;28;20218;-78
2024/01/03 00:23:53;;;;;;;9.47;6.20;;;;;;;;;;5112339;28;20215;-78
2024/01/03 00:26:21;;;;;;;14.07;7.20;;;;;;;;;;5101008;28;20196;-78
2024/01/03 00:28:48;;;;;;;8.80;5.87;;;;;;;;;;5100766;28;20195;-78
2024/01/03 00:31:26;;;;;;;8.73;6.03;;;;;;;;;;5112270;28;20636;-78
2024/01/03 00:33:53;;;;;;;11.33;6.30;;;;;;;;;;5112340;28;20210;-78
2024/01/03 00:36:20;;;;;;;9.90;6.90;;;;;;;;;;5110788;28;20199;-78
2024/01/03 00:38:47;;;;;;;12.07;7.03;;;;;;;;;;5111392;28;20269;-78
2024/01/03 00:41:13;;;;;;;7.77;6.33;;;;;;;;;;5111317;28;20195;-78
2024/01/03 00:43:41;;;;;;;15.33;6.90;;;;;;;;;;5111391;28;20199;-78
2024/01/03 00:46:11;;;;;;;9.90;5.87;;;;;;;;;;5113057;28;20302;-78
2024/01/03 00:48:40;;;;;;;12.77;5.97;;;;;;;;;;5111363;28;20206;-78
2024/01/03 00:51:07;;;;;;;11.70;6.87;;;;;;;;;;5112090;28;20199;-78
2024/01/03 00:53:34;;;;;;;8.47;5.30;;;;;;;;;;5112572;28;20315;-78
2024/01/03 00:56:01;;;;;;;6.57;4.97;;;;;;;;;;5112447;28;20263;-78
2024/01/03 00:58:33;;;;;;;7.93;4.83;;;;;;;;;;5114084;28;20195;-78
2024/01/03 01:01:01;;;;;;;6.63;5.03;;;;;;;;;;5115490;28;20207;-78
2024/01/03 01:03:27;;;;;;;10.40;6.23;;;;;;;;;;5116693;28;20199;-78
2024/01/03 01:05:54;;;;;;;8.93;5.67;;;;;;;;;;5115195;28;20218;-78
2024/01/03 01:08:21;;;;;;;12.03;6.43;;;;;;;;;;5115945;28;20619;-78
2024/01/03 01:10:48;;;;;;;7.50;5.00;;;;;;;;;;5115023;28;20196;-78
2024/01/03 01:13:14;;;;;;;13.20;5.70;;;;;;;;;;5115574;28;20202;-78
2024/01/03 01:15:41;;;;;;;14.90;5.83;;;;;;;;;;5116483;28;20248;-78
2024/01/03 01:18:09;;;;;;;8.73;5.57;;;;;;;;;;5115470;28;20722;-78
2024/01/03 01:20:36;;;;;;;11.60;6.07;;;;;;;;;;5116096;28;20681;-78
2024/01/03 01:23:03;;;;;;;7.50;5.50;;;;;;;;;;5116481;28;20612;-78
2024/01/03 01:25:30;;;;;;;13.60;5.97;;;;;;;;;;5116225;28;20219;-78
2024/01/03 01:27:57;;;;;;;13.20;6.20;;;;;;;;;;5114364;28;20202;-78
2024/01/03 01:30:23;;;;;;;15.10;5.80;;;;;;;;;;5115361;28;20203;-78
2024/01/03 01:32:53;;;;;;;8.50;5.37;;;;;;;;;;5116407;28;20227;-78
2024/01/03 01:35:21;;;;;;;8.77;5.60;;;;;;;;;;5115875;28;20195;-78
2024/01/03 01:37:49;;;;;;;8.27;5.73;;;;;;;;;;5113774;28;20207;-78
2024/01/03 01:40:16;;;;;;;7.97;5.73;;;;;;;;;;5116128;28;20205;-78
2024/01/03 01:42:43;;;;;;;6.97;5.93;;;;;;;;;;5114541;28;20278;-78
2024/01/03 01:45:10;;;;;;;9.33;6.63;;;;;;;;;;5114667;28;20226;-78
2024/01/03 01:47:38;;;;;;;6.23;4.80;;;;;;;;;;5115470;28;20252;-78
2024/01/03 01:50:06;;;;;;;7.90;5.77;;;;;;;;;;5115850;28;20195;-77
2024/01/03 01:52:34;;;;;;;9.80;6.93;;;;;;;;;;5115980;28;20203;-78
2024/01/03 01:55:02;;;;;;;11.37;7.70;;;;;;;;;;5115294;28;20248;-77
2024/01/03 01:57:30;;;;;;;10.40;7.07;;;;;;;;;;5115488;28;20670;-78
2024/01/03 01:59:57;;;;;;;9.33;6.43;;;;;;;;;;5115948;28;20210;-78
2024/01/03 02:02:24;;;;;;;7.60;5.73;;;;;;;;;;5115218;28;20191;-78
2024/01/03 02:04:52;;;;;;;6.47;4.87;;;;;;;;;;5115653;28;20227;-78
2024/01/03 02:07:18;;;;;;;5.67;4.43;;;;;;;;;;5115019;28;20248;-78
2024/01/03 02:09:47;;;;;;;7.17;4.73;;;;;;;;;;5112812;28;20191;-78
2024/01/03 02:12:14;;;;;;;10.40;5.73;;;;;;;;;;5115468;28;20393;-78
2024/01/03 02:14:40;;;;;;;8.13;5.50;;;;;;;;;;5115173;28;20202;-78
2024/01/03 02:17:08;;;;;;;9.23;5.60;;;;;;;;;;5115169;28;20191;-78
2024/01/03 02:19:35;;;;;;;13.50;6.87;;;;;;;;;;5113611;28;20199;-78
2024/01/03 02:22:03;;;;;;;11.20;7.03;;;;;;;;;;5114757;28;20199;-78
2024/01/03 02:24:30;;;;;;;10.23;6.07;;;;;;;;;;5113471;28;20678;-78
2024/01/03 02:26:57;;;;;;;9.37;5.60;;;;;;;;;;5114222;28;20236;-78
2024/01/03 02:29:24;;;;;;;11.37;6.23;;;;;;;;;;5114711;28;20265;-78
2024/01/03 02:31:51;;;;;;;11.40;6.07;;;;;;;;;;5115112;28;20219;-78
2024/01/03 02:34:18;;;;;;;13.50;7.40;;;;;;;;;;5114974;28;20195;-78
2024/01/03 02:36:47;;;;;;;11.17;6.17;;;;;;;;;;5113228;28;20207;-78
2024/01/03 02:39:16;;;;;;;12.77;6.83;;;;;;;;;;5113583;28;20196;-79
2024/01/03 02:41:43;;;;;;;11.13;7.10;;;;;;;;;;5114678;28;20203;-78
2024/01/03 02:44:10;;;;;;;11.93;6.80;;;;;;;;;;5114846;28;20637;-78
2024/01/03 02:46:37;;;;;;;18.63;7.73;;;;;;;;;;5114133;28;20567;-78
2024/01/03 02:49:04;;;;;;;14.10;7.57;;;;;;;;;;5114191;28;20196;-78
2024/01/03 02:51:31;;;;;;;10.70;6.60;;;;;;;;;;5108809;28;20235;-78
2024/01/03 02:53:57;;;;;;;8.20;5.43;;;;;;;;;;5108379;28;20195;-78
2024/01/03 02:56:26;;;;;;;11.97;6.20;;;;;;;;;;5113985;28;20191;-78
2024/01/03 02:58:53;;;;;;;9.00;5.77;;;;;;;;;;5113982;28;20195;-78
2024/01/03 03:01:20;;;;;;;9.90;6.47;;;;;;;;;;5113343;28;20195;-78
2024/01/03 03:03:46;;;;;;;15.13;7.20;;;;;;;;;;5114135;28;20214;-78
2024/01/03 03:06:13;;;;;;;20.43;10.20;;;;;;;;;;5114494;28;20231;-78
2024/01/03 03:08:42;;;;;;;15.93;11.80;;;;;;;;;;5111447;28;20199;-78
2024/01/03 03:11:09;;;;;;;24.90;10.40;;;;;;;;;;5102247;28;20198;-78
2024/01/03 03:13:37;;;;;;;15.53;7.33;;;;;;;;;;5112802;28;20564;-78
2024/01/03 03:16:04;;;;;;;12.13;6.33;;;;;;;;;;5113952;28;20202;-78
2024/01/03 03:18:30;;;;;;;10.63;6.10;;;;;;;;;;5112738;28;20271;-78
2024/01/03 03:20:57;;;;;;;14.57;6.47;;;;;;;;;;5112685;28;20192;-78
2024/01/03 03:23:24;;;;;;;14.27;6.10;;;;;;;;;;5113700;28;20238;-78
2024/01/03 03:25:51;;;;;;;34.47;7.63;;;;;;;;;;5112631;28;20284;-78
2024/01/03 03:28:18;;;;;;;13.10;5.73;;;;;;;;;;5113718;28;20252;-78
2024/01/03 03:30:46;;;;;;;14.10;7.87;;;;;;;;;;5114072;28;20195;-78
2024/01/03 03:33:13;;;;;;;30.97;7.40;;;;;;;;;;5113587;28;20385;-78
2024/01/03 03:35:40;;;;;;;24.60;6.17;;;;;;;;;;5113780;28;20585;-78
2024/01/03 03:38:09;;;;;;;13.90;7.37;;;;;;;;;;5111732;28;20658;-78
2024/01/03 03:40:36;;;;;;;17.57;7.67;;;;;;;;;;5113564;28;20670;-78
2024/01/03 03:43:03;;;;;;;14.50;6.93;;;;;;;;;;5112808;28;20199;-78
2024/01/03 03:45:31;;;;;;;10.90;5.93;;;;;;;;;;5112822;28;20222;-78
2024/01/03 03:47:59;;;;;;;11.73;6.83;;;;;;;;;;5112814;28;20203;-78
2024/01/03 03:50:26;;;;;;;8.43;6.27;;;;;;;;;;5114074;28;20195;-78
2024/01/03 03:52:53;;;;;;;10.40;6.23;;;;;;;;;;5112888;28;20199;-77
2024/01/03 03:55:20;;;;;;;10.83;7.70;;;;;;;;;;5113345;28;20722;-78
2024/01/03 03:57:47;;;;;;;10.70;7.50;;;;;;;;;;5113260;28;20707;-78
2024/01/03 04:00:15;;;;;;;14.33;8.87;;;;;;;;;;5113277;28;20199;-78
2024/01/03 04:02:41;;;;;;;30.63;17.67;;;;;;;;;;5113013;28;20200;-78
2024/01/03 04:05:10;;;;;;;35.07;23.83;;;;;;;;;;5112874;28;20222;-78
2024/01/03 04:07:38;;;;;;;20.37;14.07;;;;;;;;;;5111707;28;20559;-78
2024/01/03 04:10:07;;;;;;;24.80;12.77;;;;;;;;;;5113071;28;20191;-78
2024/01/03 04:12:37;;;;;;;17.33;10.13;;;;;;;;;;5086762;28;20666;-78
2024/01/03 04:15:04;;;;;;;11.43;7.57;;;;;;;;;;5112626;28;20199;-78
2024/01/03 04:17:31;;;;;;;9.57;6.93;;;;;;;;;;5112140;28;20196;-78
2024/01/03 04:19:58;;;;;;;12.53;7.10;;;;;;;;;;5112699;28;20252;-78
2024/01/03 04:22:27;;;;;;;9.23;6.17;;;;;;;;;;5112551;28;20191;-78
2024/01/03 04:24:53;;;;;;;15.00;7.53;;;;;;;;;;5113377;28;20276;-78
2024/01/03 04:27:20;;;;;;;9.80;6.87;;;;;;;;;;5112508;28;20196;-78
2024/01/03 04:29:47;;;;;;;12.07;8.30;;;;;;;;;;5112931;28;20227;-78
2024/01/03 04:32:13;;;;;;;14.40;9.80;;;;;;;;;;5112032;28;20755;-78
2024/01/03 04:34:40;;;;;;;14.20;9.87;;;;;;;;;;5111908;28;20200;-78
2024/01/03 04:37:07;;;;;;;16.40;8.00;;;;;;;;;;5112676;28;20195;-78
2024/01/03 04:39:35;;;;;;;19.03;9.63;;;;;;;;;;5112430;28;20206;-78
2024/01/03 04:42:02;;;;;;;12.70;7.07;;;;;;;;;;5094547;28;20219;-78
2024/01/03 04:44:29;;;;;;;9.90;6.93;;;;;;;;;;5097604;28;20208;-79
2024/01/03 04:46:56;;;;;;;9.80;7.37;;;;;;;;;;5092872;28;20219;-80
2024/01/03 04:49:23;;;;;;;11.00;7.27;;;;;;;;;;5111110;28;20188;-80
2024/01/03 04:51:52;;;;;;;12.83;8.30;;;;;;;;;;5104686;28;20651;-79
2024/01/03 04:54:18;;;;;;;9.17;7.50;;;;;;;;;;5107492;28;20200;-79
2024/01/03 04:56:47;;;;;;;15.10;9.03;;;;;;;;;;5100331;28;20192;-79
2024/01/03 04:59:13;;;;;;;14.93;9.83;;;;;;;;;;5111289;28;20203;-79
2024/01/03 05:01:42;;;;;;;17.93;11.00;;;;;;;;;;5102662;28;20256;-79
2024/01/03 05:04:11;;;;;;;18.73;11.67;;;;;;;;;;5091145;28;20561;-79
2024/01/03 05:06:38;;;;;;;20.77;12.40;;;;;;;;;;5107444;28;20276;-79
2024/01/03 05:09:06;;;;;;;25.17;15.30;;;;;;;;;;5109371;28;20256;-79
2024/01/03 05:11:33;;;;;;;28.97;12.97;;;;;;;;;;5107923;28;20579;-79
2024/01/03 05:14:02;;;;;;;15.43;9.97;;;;;;;;;;5106889;28;20665;-79
2024/01/03 05:16:29;;;;;;;11.97;8.30;;;;;;;;;;5111084;28;20192;-79
2024/01/03 05:18:56;;;;;;;23.10;11.63;;;;;;;;;;5111701;28;20191;-79
2024/01/03 05:21:23;;;;;;;13.80;8.97;;;;;;;;;;5093188;28;20201;-79
2024/01/03 05:23:50;;;;;;;13.83;8.87;;;;;;;;;;5110694;28;20223;-80
2024/01/03 05:26:16;;;;;;;12.40;6.90;;;;;;;;;;5112149;28;20219;-78
2024/01/03 05:28:43;;;;;;;22.53;10.67;;;;;;;;;;5111872;28;20206;-79
2024/01/03 05:31:11;;;;;;;25.03;11.87;;;;;;;;;;5111631;28;20228;-78
2024/01/03 05:33:38;;;;;;;14.17;9.53;;;;;;;;;;5107470;28;20561;-78
2024/01/03 05:36:05;;;;;;;59.77;33.17;;;;;;;;;;5107557;28;20658;-77
2024/01/03 05:38:36;;;;;;;49.47;29.90;;;;;;;;;;5111331;28;20294;-78
2024/01/03 05:41:02;;;;;;;36.60;21.17;;;;;;;;;;5111130;28;20200;-78
2024/01/03 05:43:31;;;;;;;25.53;15.70;;;;;;;;;;5111595;28;20217;-78
2024/01/03 05:45:58;;;;;;;22.10;13.97;;;;;;;;;;5114073;28;20219;-78
2024/01/03 05:48:26;;;;;;;17.03;12.33;;;;;;;;;;5115845;28;20202;-78
2024/01/03 05:50:54;;;;;;;21.17;11.57;;;;;;;;;;5116031;28;20195;-78
2024/01/03 05:53:20;;;;;;;20.00;13.17;;;;;;;;;;5113237;28;20574;-78
2024/01/03 05:55:47;;;;;;;20.53;12.53;;;;;;;;;;5113731;28;20203;-78
2024/01/03 05:58:14;;;;;;;16.80;10.80;;;;;;;;;;5112816;28;20199;-78
2024/01/03 06:00:41;;;;;;;14.80;10.27;;;;;;;;;;5114055;28;20192;-78
2024/01/03 06:03:07;;;;;;;13.10;9.73;;;;;;;;;;5113649;28;20626;-78
2024/01/03 06:05:36;;;;;;;17.23;10.33;;;;;;;;;;5113682;28;20199;-79
2024/01/03 06:08:04;;;;;;;18.93;10.70;;;;;;;;;;5113598;28;20195;-79
2024/01/03 06:10:31;;;;;;;17.90;11.87;;;;;;;;;;5113820;28;20658;-78
2024/01/03 06:12:57;;;;;;;17.67;11.00;;;;;;;;;;5114416;28;20191;-78
2024/01/03 06:15:24;;;;;;;20.63;13.17;;;;;;;;;;5113900;28;20196;-78
2024/01/03 06:17:51;;;;;;;19.67;14.07;;;;;;;;;;5113160;28;20192;-78
2024/01/03 06:20:18;;;;;;;22.27;15.63;;;;;;;;;;5113983;28;20688;-78
2024/01/03 06:22:47;;;;;;;20.50;14.13;;;;;;;;;;5113757;28;20199;-78
2024/01/03 06:25:14;;;;;;;16.43;12.07;;;;;;;;;;5113996;28;20571;-78
2024/01/03 06:27:41;;;;;;;17.57;10.70;;;;;;;;;;5113700;28;20211;-78
2024/01/03 06:30:08;;;;;;;14.40;10.47;;;;;;;;;;5113760;28;20203;-79
2024/01/03 06:32:35;;;;;;;10.73;8.20;;;;;;;;;;5113042;28;20598;-78
2024/01/03 06:35:02;;;;;;;11.37;8.33;;;;;;;;;;5113917;28;20196;-78
2024/01/03 06:37:31;;;;;;;10.70;8.23;;;;;;;;;;5111369;28;20196;-78
2024/01/03 06:39:59;;;;;;;13.13;9.33;;;;;;;;;;5090712;28;20192;-79
2024/01/03 06:42:26;;;;;;;15.37;8.80;;;;;;;;;;5113639;28;20191;-78
2024/01/03 06:44:53;;;;;;;11.87;8.30;;;;;;;;;;5113511;28;20568;-78
2024/01/03 06:47:20;;;;;;;16.03;9.03;;;;;;;;;;5113334;28;20318;-78
2024/01/03 06:49:47;;;;;;;15.13;9.07;;;;;;;;;;5113749;28;20192;-78
2024/01/03 06:52:13;;;;;;;20.23;11.63;;;;;;;;;;5112928;28;20606;-78
2024/01/03 06:54:40;;;;;;;21.27;12.50;;;;;;;;;;5113338;28;20199;-79
2024/01/03 06:57:08;;;;;;;23.43;9.83;;;;;;;;;;5112489;28;20192;-79
2024/01/03 06:59:36;;;;;;;14.37;9.57;;;;;;;;;;5113162;28;20335;-79
2024/01/03 07:02:03;;;;;;;19.37;10.00;;;;;;;;;;5113467;28;20286;-79
2024/01/03 07:04:30;;;;;;;29.03;19.93;;;;;;;;;;5113276;28;20191;-78
2024/01/03 07:06:58;;;;;;;43.53;29.60;;;;;;;;;;5112870;28;20223;-79
2024/01/03 07:09:24;;;;;;;37.33;27.53;;;;;;;;;;5113293;28;20203;-78
2024/01/03 07:11:51;;;;;;;43.13;26.93;;;;;;;;;;5113232;28;20291;-78
2024/01/03 07:14:20;;;;;;;45.03;24.57;;;;;;;;;;5112761;28;20252;-78
2024/01/03 07:16:46;;;;;;;28.30;15.90;;;;;;;;;;5112819;28;20662;-79
2024/01/03 07:19:13;;;;;;;52.03;27.63;;;;;;;;;;5112802;28;22016;-79
2024/01/03 07:21:40;;;;;;;28.03;17.70;;;;;;;;;;5113007;28;20541;-79
2024/01/03 07:24:10;;;;;;;25.73;15.10;;;;;;;;;;5112857;28;20575;-79
2024/01/03 07:26:37;;;;;;;25.53;12.67;;;;;;;;;;5112741;28;20303;-79
2024/01/03 07:29:03;;;;;;;23.33;13.10;;;;;;;;;;5112627;28;20196;-79
2024/01/03 07:31:32;;;;;;;20.43;12.90;;;;;;;;;;5084706;28;20223;-78
2024/01/03 07:33:58;;;;;;;23.17;13.53;;;;;;;;;;5112860;28;20199;-78
2024/01/03 07:36:25;;;;;;;21.77;12.93;;;;;;;;;;5112312;28;20215;-79
2024/01/03 07:38:52;;;;;;;21.00;13.53;;;;;;;;;;5112874;28;20202;-79
2024/01/03 07:41:20;;;;;;;27.53;14.63;;;;;;;;;;5109135;28;20192;-79
2024/01/03 07:43:46;;;;;;;28.83;14.17;;;;;;;;;;5112365;28;20191;-79
2024/01/03 07:46:16;;;;;;;25.13;12.63;;;;;;;;;;5112137;28;20215;-79
2024/01/03 07:48:44;;;;;;;20.73;10.63;;;;;;;;;;5112365;28;20278;-79
2024/01/03 07:51:11;;;;;;;12.37;7.97;;;;;;;;;;5112740;28;20250;-79
2024/01/03 07:53:38;;;;;;;15.40;8.17;;;;;;;;;;5111786;28;20201;-79
2024/01/03 07:56:07;;;;;;;13.83;8.80;;;;;;;;;;5112664;28;20199;-79
2024/01/03 07:58:34;;;;;;;12.50;7.77;;;;;;;;;;5111658;28;20203;-79
2024/01/03 08:01:01;;;;;;;12.60;7.60;;;;;;;;;;5112627;28;20669;-79
2024/01/03 08:03:28;;;;;;;12.33;7.73;;;;;;;;;;5111524;28;20199;-79
2024/01/03 08:05:56;;;;;;;11.77;8.10;;;;;;;;;;5112290;28;20192;-79
2024/01/03 08:08:23;;;;;;;11.03;9.17;;;;;;;;;;5111806;28;20195;-79
2024/01/03 08:10:49;;;;;;;26.70;9.37;;;;;;;;;;5111771;28;20195;-79
2024/01/03 08:13:16;;;;;;;14.33;10.23;;;;;;;;;;5111904;28;20203;-79
2024/01/03 08:15:44;;;;;;;11.10;8.50;;;;;;;;;;5112248;28;20202;-79
2024/01/03 08:18:11;;;;;;;14.63;9.90;;;;;;;;;;5111377;28;20199;-79
2024/01/03 08:20:37;;;;;;;18.27;9.40;;;;;;;;;;5112137;28;20264;-79
2024/01/03 08:23:06;;;;;;;13.00;9.00;;;;;;;;;;5111604;28;20206;-79
2024/01/03 08:25:32;;;;;;;12.37;8.33;;;;;;;;;;5112331;28;20191;-79
2024/01/03 08:27:59;;;;;;;10.37;8.63;;;;;;;;;;5111814;28;20223;-79
2024/01/03 08:30:26;;;;;;;7.90;6.50;;;;;;;;;;5111933;28;20240;-79
2024/01/03 08:32:53;;;;;;;9.37;8.00;;;;;;;;;;5111210;28;20575;-79
2024/01/03 08:35:20;;;;;;;74.87;48.23;;;;;;;;;;5111751;28;20199;-79
2024/01/03 08:37:46;;;;;;;63.70;41.70;;;;;;;;;;5109307;28;20214;-79
2024/01/03 08:40:15;;;;;;;32.03;23.83;;;;;;;;;;5111507;28;20206;-79
2024/01/03 08:42:45;;;;;;;28.07;20.27;;;;;;;;;;5111873;28;20565;-79
2024/01/03 08:45:12;;;;;;;17.27;12.20;;;;;;;;;;5108615;28;20204;-79
2024/01/03 08:47:39;;;;;;;16.83;14.40;;;;;;;;;;5111328;28;20234;-79
2024/01/03 08:50:06;;;;;;;21.07;15.00;;;;;;;;;;5111473;28;20614;-79
2024/01/03 08:52:32;;;;;;;40.60;22.50;;;;;;;;;;5111402;28;20210;-79
2024/01/03 08:55:00;;;;;;;45.00;25.33;;;;;;;;;;5111794;28;20195;-79
2024/01/03 08:57:28;;;;;;;16.97;13.37;;;;;;;;;;5111246;28;20219;-79
2024/01/03 08:59:54;;;;;;;14.13;11.37;;;;;;;;;;5109008;28;20218;-80
2024/01/03 09:02:21;;;;;;;18.47;12.50;;;;;;;;;;5110241;28;20199;-79
2024/01/03 09:04:48;;;;;;;10.43;9.00;;;;;;;;;;5110912;28;20217;-79
2024/01/03 09:07:15;;;;;;;10.40;8.43;;;;;;;;;;5107636;28;20215;-79
2024/01/03 09:09:41;;;;;;;10.57;9.37;;;;;;;;;;5111193;28;20203;-79
2024/01/03 09:12:08;;;;;;;13.57;9.87;;;;;;;;;;5110814;28;20194;-79
2024/01/03 09:14:36;;;;;;;42.67;23.53;;;;;;;;;;5110699;28;20199;-79
2024/01/03 09:17:03;;;;;;;27.00;15.20;;;;;;;;;;5110981;28;20191;-79
2024/01/03 09:19:31;;;;;;;8.27;6.47;;;;;;;;;;5112719;28;20200;-78
2024/01/03 09:21:59;;;;;;;6.13;5.53;;;;;;;;;;5089265;28;20237;-80
2024/01/03 09:24:29;;;;;;;6.37;5.70;;;;;;;;;;5114968;28;20646;-79
2024/01/03 09:26:56;;;;;;;5.83;5.30;;;;;;;;;;5115861;28;20226;-79
2024/01/03 09:29:23;;;;;;;8.40;7.43;;;;;;;;;;5114931;28;20202;-79
2024/01/03 09:31:51;;;;;;;7.40;6.70;;;;;;;;;;5114837;28;20254;-79
2024/01/03 09:34:18;;;;;;;7.87;7.07;;;;;;;;;;5114726;28;20203;-79
2024/01/03 09:36:44;;;;;;;10.27;8.00;;;;;;;;;;5115050;28;20195;-79
2024/01/03 09:39:16;;;;;;;8.43;7.60;;;;;;;;;;5111640;28;20241;-79
2024/01/03 09:41:46;;;;;;;7.20;6.50;;;;;;;;;;5114568;28;20282;-79
2024/01/03 09:44:14;;;;;;;7.27;6.07;;;;;;;;;;5114400;28;20206;-79
2024/01/03 09:46:43;;;;;;;8.80;7.60;;;;;;;;;;5114933;28;20203;-79
2024/01/03 09:49:11;;;;;;;8.87;7.97;;;;;;;;;;5114239;28;20196;-79
2024/01/03 09:51:39;;;;;;;8.93;7.47;;;;;;;;;;5114337;28;20204;-79
2024/01/03 09:54:09;;;;;;;8.83;7.93;;;;;;;;;;5114089;28;20253;-79
2024/01/03 09:56:38;;;;;;;15.20;11.13;;;;;;;;;;5114496;28;20191;-79
2024/01/03 09:59:04;;;;;;;16.60;13.93;;;;;;;;;;5114511;28;20195;-79
2024/01/03 10:01:32;;;;;;;10.27;8.80;;;;;;;;;;5114449;28;20199;-79
2024/01/03 10:03:59;;;;;;;9.37;8.47;;;;;;;;;;5113893;28;20211;-79
2024/01/03 10:06:27;;;;;;;10.40;9.30;;;;;;;;;;5114496;28;20196;-79
2024/01/03 10:08:58;;;;;;;10.30;8.90;;;;;;;;;;5113763;28;20273;-79
2024/01/03 10:11:26;;;;;;;8.63;7.47;;;;;;;;;;5114442;28;20276;-80
2024/01/03 10:13:54;;;;;;;10.97;8.07;;;;;;;;;;5113977;28;20192;-79
2024/01/03 10:16:25;;;;;;;8.33;7.13;;;;;;;;;;5113506;28;20565;-79
2024/01/03 10:19:08;;;;;;;8.40;6.50;;;;;;;;;;5114384;28;20196;-79
2024/01/03 10:21:37;;;;;;;8.20;6.60;;;;;;;;;;5114346;28;20187;-79
2024/01/03 10:24:05;;;;;;;6.60;5.87;;;;;;;;;;5114066;28;20279;-79
2024/01/03 10:26:32;;;;;;;6.33;5.53;;;;;;;;;;5109214;28;20192;-78
2024/01/03 10:29:09;;;;;;;7.50;5.13;;;;;;;;;;5113588;28;20871;-78
2024/01/03 10:31:35;;;;;;;4.30;3.77;;;;;;;;;;5082952;28;20223;-78
2024/01/03 10:34:03;;;;;;;4.67;4.03;;;;;;;;;;5113979;28;20202;-79
2024/01/03 10:36:30;;;;;;;15.37;11.03;;;;;;;;;;5113603;28;20200;-78
2024/01/03 10:38:59;;;;;;;18.40;14.80;;;;;;;;;;5112676;28;20286;-79
2024/01/03 10:41:26;;;;;;;10.23;8.17;;;;;;;;;;5113667;28;20188;-78
2024/01/03 10:43:54;;;;;;;20.50;16.43;;;;;;;;;;5113255;28;20210;-79
2024/01/03 10:46:22;;;;;;;15.83;13.40;;;;;;;;;;5085641;28;20215;-79
2024/01/03 10:48:49;;;;;;;10.53;9.40;;;;;;;;;;5113249;28;20665;-79
2024/01/03 10:51:15;;;;;;;7.83;6.50;;;;;;;;;;5113209;28;20204;-79
2024/01/03 10:53:44;;;;;;;6.90;6.17;;;;;;;;;;5113403;28;20283;-79
2024/01/03 10:56:14;;;;;;;6.27;5.67;;;;;;;;;;5113414;28;20195;-79
2024/01/03 10:58:40;;;;;;;7.20;5.90;;;;;;;;;;5112799;28;20264;-78
2024/01/03 11:01:13;;;;;;;18.87;11.17;;;;;;;;;;5113253;28;20222;-79
2024/01/03 11:03:45;;;;;;;5.60;4.90;;;;;;;;;;5113255;28;20203;-79
2024/01/03 11:06:18;;;;;;;7.00;4.70;;;;;;;;;;5113441;28;20203;-79
2024/01/03 11:08:52;;;;;;;5.27;4.77;;;;;;;;;;5111810;28;20689;-79
2024/01/03 11:11:35;;;;;;;5.80;5.00;;;;;;;;;;5113221;28;20230;-79
2024/01/03 11:14:03;;;;;;;5.50;4.20;;;;;;;;;;5087430;28;20191;-79
2024/01/03 11:16:38;;;;;;;4.83;4.33;;;;;;;;;;5112608;28;20191;-78
2024/01/03 11:19:05;;;;;;;5.00;4.20;;;;;;;;;;5112474;28;20199;-79
2024/01/03 11:21:39;;;;;;;5.40;4.97;;;;;;;;;;5112657;28;20192;-79
2024/01/03 11:24:53;;;;;;;7.07;5.57;;;;;;;;;;5113279;28;20203;-78
2024/01/03 11:27:25;;;;;;;4.13;3.70;;;;;;;;;;5112661;28;20651;-78
2024/01/03 11:29:54;;;;;;;4.20;3.80;;;;;;;;;;5112427;28;20196;-79
2024/01/03 11:32:32;;;;;;;3.90;3.50;;;;;;;;;;5110664;28;20223;-79
2024/01/03 11:34:59;;;;;;;4.07;3.77;;;;;;;;;;5087476;28;20195;-79
2024/01/03 11:37:33;;;;;;;4.57;4.17;;;;;;;;;;5111672;28;20195;-78
2024/01/03 11:39:59;;;;;;;5.30;3.90;;;;;;;;;;5112816;28;20202;-78
2024/01/03 11:42:30;;;;;;;4.27;3.87;;;;;;;;;;5111644;28;20207;-79
2024/01/03 11:45:02;;;;;;;4.33;3.93;;;;;;;;;;5112347;28;20199;-78
2024/01/03 11:47:29;;;;;;;4.07;3.77;;;;;;;;;;5111909;28;20216;-78
2024/01/03 11:49:56;;;;;;;4.73;3.63;;;;;;;;;;5112525;28;20191;-79
2024/01/03 11:52:23;;;;;;;4.70;3.70;;;;;;;;;;5112007;28;20256;-79
2024/01/03 11:54:53;;;;;;;4.87;4.37;;;;;;;;;;5112000;28;20726;-79
2024/01/03 11:57:23;;;;;;;9.27;7.03;;;;;;;;;;5112068;28;20194;-79
2024/01/03 11:59:58;;;;;;;27.53;14.53;;;;;;;;;;5112686;28;20253;-78
2024/01/03 12:02:25;;;;;;;29.40;18.47;;;;;;;;;;5112142;28;20714;-79
2024/01/03 12:04:59;;;;;;;9.80;8.80;;;;;;;;;;5112121;28;20191;-79
2024/01/03 12:07:26;;;;;;;10.10;8.77;;;;;;;;;;5111966;28;20192;-78
2024/01/03 12:09:53;;;;;;;6.43;5.83;;;;;;;;;;5111802;28;20195;-79
2024/01/03 12:12:20;;;;;;;4.77;4.27;;;;;;;;;;5111976;28;20196;-79
2024/01/03 12:14:51;;;;;;;6.07;5.30;;;;;;;;;;5111866;28;20198;-79
2024/01/03 12:17:26;;;;;;;7.17;5.13;;;;;;;;;;5111651;28;20204;-78
2024/01/03 12:19:53;;;;;;;6.13;5.53;;;;;;;;;;5111755;28;20187;-79
2024/01/03 12:22:23;;;;;;;10.87;8.03;;;;;;;;;;5111550;28;20202;-78
2024/01/03 12:24:50;;;;;;;6.00;5.40;;;;;;;;;;5111998;28;20275;-79
2024/01/03 12:27:23;;;;;;;7.33;6.63;;;;;;;;;;5110957;28;20192;-79
2024/01/03 12:29:51;;;;;;;7.00;5.77;;;;;;;;;;5111490;28;20271;-80
2024/01/03 12:32:19;;;;;;;7.13;6.30;;;;;;;;;;5111562;28;20261;-79
2024/01/03 12:34:49;;;;;;;5.67;5.07;;;;;;;;;;5111370;28;20274;-80
2024/01/03 12:37:16;;;;;;;6.13;5.40;;;;;;;;;;5111581;28;20200;-80
2024/01/03 12:39:45;;;;;;;6.23;5.63;;;;;;;;;;5111421;28;20222;-80
2024/01/03 12:42:12;;;;;;;6.57;5.97;;;;;;;;;;5110925;28;20200;-80
2024/01/03 12:44:42;;;;;;;6.00;4.87;;;;;;;;;;5111448;28;20222;-79
2024/01/03 12:47:10;;;;;;;6.33;5.73;;;;;;;;;;5109875;28;20200;-79
2024/01/03 12:49:38;;;;;;;6.97;6.37;;;;;;;;;;5111378;28;20697;-79
2024/01/03 12:52:10;;;;;;;8.70;7.37;;;;;;;;;;5111285;28;20199;-80
2024/01/03 12:54:37;;;;;;;4.33;3.30;;;;;;;;;;5111067;28;20215;-80
2024/01/03 12:57:07;;;;;;;3.47;3.17;;;;;;;;;;5111056;28;20199;-79
2024/01/03 12:59:35;;;;;;;4.03;3.70;;;;;;;;;;5111448;28;20278;-79
2024/01/03 13:02:03;;;;;;;4.47;4.07;;;;;;;;;;5111461;28;20218;-79
2024/01/03 13:04:29;;;;;;;4.90;4.40;;;;;;;;;;5110828;28;20229;-79
2024/01/03 13:06:56;;;;;;;6.63;5.93;;;;;;;;;;5111134;28;20662;-79
2024/01/03 13:09:24;;;;;;;6.87;5.87;;;;;;;;;;5110833;28;20638;-79
2024/01/03 13:11:52;;;;;;;10.17;5.40;;;;;;;;;;5111419;28;20199;-80
2024/01/03 13:14:18;;;;;;;13.67;9.30;;;;;;;;;;5111202;28;20195;-79
2024/01/03 13:16:45;;;;;;;10.87;6.80;;;;;;;;;;5110803;28;20198;-80
2024/01/03 13:19:13;;;;;;;5.37;4.80;;;;;;;;;;5110926;28;20207;-81
2024/01/03 13:21:40;;;;;;;5.23;4.27;;;;;;;;;;5111138;28;20230;-79
2024/01/03 13:24:09;;;;;;;5.60;4.83;;;;;;;;;;5111260;28;20200;-79
2024/01/03 13:26:37;;;;;;;8.20;5.47;;;;;;;;;;5109543;28;20184;-79
2024/01/03 13:29:04;;;;;;;9.27;5.47;;;;;;;;;;5111027;28;20697;-79
2024/01/03 13:31:32;;;;;;;11.27;7.53;;;;;;;;;;5111024;28;20620;-79
2024/01/03 13:33:59;;;;;;;10.73;8.47;;;;;;;;;;5110940;28;20199;-79
2024/01/03 13:36:25;;;;;;;5.43;4.93;;;;;;;;;;5110823;28;20191;-78
2024/01/03 13:38:52;;;;;;;4.73;3.70;;;;;;;;;;5111284;28;20210;-78
2024/01/03 13:41:19;;;;;;;4.47;3.40;;;;;;;;;;5110841;28;20203;-78
2024/01/03 13:43:48;;;;;;;3.27;2.97;;;;;;;;;;5110741;28;20227;-78
2024/01/03 13:46:16;;;;;;;3.30;2.90;;;;;;;;;;5111481;28;20207;-79
2024/01/03 13:48:44;;;;;;;3.40;3.10;;;;;;;;;;5110684;28;20220;-78
2024/01/03 13:51:10;;;;;;;4.37;3.40;;;;;;;;;;5110174;28;20199;-78
2024/01/03 13:53:37;;;;;;;6.23;5.67;;;;;;;;;;5097668;28;20200;-78
2024/01/03 13:56:05;;;;;;;3.87;3.57;;;;;;;;;;5110603;28;20204;-78
2024/01/03 13:58:34;;;;;;;3.37;3.07;;;;;;;;;;5109971;28;20234;-78
2024/01/03 14:01:02;;;;;;;3.60;3.30;;;;;;;;;;5110694;28;20235;-78
2024/01/03 14:03:29;;;;;;;5.03;4.60;;;;;;;;;;5110040;28;20223;-78
2024/01/03 14:05:56;;;;;;;7.83;6.93;;;;;;;;;;5112561;28;20191;-78
2024/01/03 14:08:23;;;;;;;10.07;8.97;;;;;;;;;;5113730;28;20215;-78
2024/01/03 14:10:53;;;;;;;11.00;9.63;;;;;;;;;;5114302;28;20199;-78
2024/01/03 14:13:22;;;;;;;10.30;8.30;;;;;;;;;;5113813;28;20192;-77
2024/01/03 14:15:51;;;;;;;13.23;8.40;;;;;;;;;;5114174;28;20199;-78
2024/01/03 14:18:19;;;;;;;9.23;8.20;;;;;;;;;;5113029;28;20252;-78
2024/01/03 14:20:47;;;;;;;13.00;10.27;;;;;;;;;;5114194;28;20203;-78
2024/01/03 14:23:14;;;;;;;12.10;8.23;;;;;;;;;;5114014;28;20191;-78
2024/01/03 14:25:41;;;;;;;8.70;6.97;;;;;;;;;;5114247;28;20199;-78
2024/01/03 14:28:08;;;;;;;12.53;11.27;;;;;;;;;;5113032;28;20194;-78
2024/01/03 14:30:35;;;;;;;15.03;12.33;;;;;;;;;;5114185;28;20206;-78
2024/01/03 14:33:02;;;;;;;16.43;12.20;;;;;;;;;;5114330;28;20586;-78
2024/01/03 14:35:31;;;;;;;11.73;8.73;;;;;;;;;;5113856;28;20211;-77